SAS592 EBBR-EKCH
Flight info
| Callsign | SAS592 |
|---|---|
| Flight time | 1h 9m |
| Altitude | 38000 |
| Route | NIK3T NIK L191 VICOT N873 SPY DCT DOSUR/N0442F370 P729 TUDLO TUDLO4A |
| Aircraft | A319/M-VGDW/C |
Departure
| Time | 2026-04-26 10:45 |
|---|---|
| Airport | Brussels Airport (EBBR) |
Arrival
| Time | 2026-04-26 11:54 |
|---|---|
| Airport | Copenhagen Kastrup Airport (EKCH) |
| Time | Latitude | Longitude | Altitude | Speed | Heading |
|---|---|---|---|---|---|
| 2026-04-26 10:11 | 50.90371 | 4.48486 | 121 ft | 0 kts | 155° |
| 2026-04-26 10:35 | 50.90372 | 4.48485 | 121 ft | 1 kts | 155° |
| 2026-04-26 10:35 | 50.90388 | 4.48474 | 117 ft | 3 kts | 155° |
| 2026-04-26 10:36 | 50.90405 | 4.48459 | 117 ft | 3 kts | 139° |
| 2026-04-26 10:36 | 50.90415 | 4.48442 | 117 ft | 2 kts | 84° |
| 2026-04-26 10:36 | 50.90415 | 4.48433 | 117 ft | 0 kts | 65° |
| 2026-04-26 10:39 | 50.90418 | 4.48443 | 117 ft | 3 kts | 65° |
| 2026-04-26 10:39 | 50.90433 | 4.48483 | 119 ft | 5 kts | 38° |
| 2026-04-26 10:39 | 50.90475 | 4.48503 | 119 ft | 8 kts | 40° |
| 2026-04-26 10:39 | 50.90514 | 4.48580 | 119 ft | 10 kts | 31° |
| 2026-04-26 10:40 | 50.90559 | 4.48521 | 121 ft | 11 kts | 266° |
| 2026-04-26 10:40 | 50.90527 | 4.48392 | 119 ft | 14 kts | 244° |
| 2026-04-26 10:40 | 50.90478 | 4.48222 | 121 ft | 19 kts | 245° |
| 2026-04-26 10:40 | 50.90417 | 4.48012 | 119 ft | 23 kts | 245° |
| 2026-04-26 10:41 | 50.90347 | 4.47770 | 119 ft | 26 kts | 245° |
| 2026-04-26 10:41 | 50.90269 | 4.47500 | 121 ft | 28 kts | 245° |
| 2026-04-26 10:41 | 50.90187 | 4.47214 | 124 ft | 28 kts | 245° |
| 2026-04-26 10:41 | 50.90107 | 4.46936 | 125 ft | 28 kts | 245° |
| 2026-04-26 10:42 | 50.90023 | 4.46646 | 132 ft | 30 kts | 245° |
| 2026-04-26 10:42 | 50.89938 | 4.46353 | 135 ft | 24 kts | 245° |
| 2026-04-26 10:42 | 50.89866 | 4.46106 | 138 ft | 26 kts | 245° |
| 2026-04-26 10:42 | 50.89794 | 4.45853 | 140 ft | 23 kts | 245° |
| 2026-04-26 10:43 | 50.89777 | 4.45694 | 141 ft | 11 kts | 308° |
| 2026-04-26 10:43 | 50.89853 | 4.45665 | 142 ft | 12 kts | 2° |
| 2026-04-26 10:43 | 50.89940 | 4.45732 | 140 ft | 13 kts | 58° |
| 2026-04-26 10:43 | 50.89955 | 4.45787 | 140 ft | 0 kts | 66° |
| 2026-04-26 10:44 | 50.89958 | 4.45797 | 140 ft | 4 kts | 66° |
| 2026-04-26 10:44 | 50.90060 | 4.46149 | 137 ft | 71 kts | 65° |
| 2026-04-26 10:44 | 50.90355 | 4.47170 | 125 ft | 131 kts | 65° |
| 2026-04-26 10:44 | 50.90801 | 4.48704 | 333 ft | 161 kts | 65° |
| 2026-04-26 10:45 | 50.91246 | 4.50273 | 1108 ft | 153 kts | 66° |
| 2026-04-26 10:45 | 50.91671 | 4.51804 | 1945 ft | 150 kts | 67° |
| 2026-04-26 10:45 | 50.92334 | 4.52990 | 2691 ft | 147 kts | 31° |
| 2026-04-26 10:45 | 50.93368 | 4.53334 | 3168 ft | 164 kts | 358° |
| 2026-04-26 10:46 | 50.94531 | 4.52736 | 3544 ft | 190 kts | 331° |
| 2026-04-26 10:46 | 50.95602 | 4.51260 | 3879 ft | 221 kts | 315° |
| 2026-04-26 10:46 | 50.96741 | 4.49424 | 4395 ft | 246 kts | 316° |
| 2026-04-26 10:46 | 50.98007 | 4.47437 | 5192 ft | 262 kts | 316° |
| 2026-04-26 10:47 | 50.99327 | 4.45380 | 6177 ft | 268 kts | 316° |
| 2026-04-26 10:47 | 51.00671 | 4.43294 | 7169 ft | 273 kts | 316° |
| 2026-04-26 10:47 | 51.02035 | 4.41169 | 8143 ft | 276 kts | 316° |
| 2026-04-26 10:47 | 51.03413 | 4.39011 | 9132 ft | 280 kts | 316° |
| 2026-04-26 10:48 | 51.04802 | 4.36828 | 10151 ft | 282 kts | 316° |
| 2026-04-26 10:48 | 51.06219 | 4.34596 | 10834 ft | 296 kts | 316° |
| 2026-04-26 10:48 | 51.07747 | 4.32195 | 11142 ft | 320 kts | 316° |
| 2026-04-26 10:48 | 51.09375 | 4.29642 | 11612 ft | 335 kts | 316° |
| 2026-04-26 10:49 | 51.11045 | 4.27012 | 12340 ft | 340 kts | 315° |
| 2026-04-26 10:49 | 51.12716 | 4.24374 | 13112 ft | 343 kts | 315° |
| 2026-04-26 10:49 | 51.14445 | 4.21645 | 13920 ft | 347 kts | 315° |
| 2026-04-26 10:49 | 51.16151 | 4.18971 | 14586 ft | 351 kts | 317° |
| 2026-04-26 10:50 | 51.18077 | 4.16536 | 15257 ft | 355 kts | 323° |
| 2026-04-26 10:50 | 51.19424 | 4.14955 | 15717 ft | 357 kts | 323° |
| 2026-04-26 10:50 | 51.22102 | 4.11811 | 16631 ft | 362 kts | 323° |
| 2026-04-26 10:50 | 51.24144 | 4.09419 | 17313 ft | 366 kts | 323° |
| 2026-04-26 10:51 | 51.26342 | 4.07338 | 17983 ft | 371 kts | 334° |
| 2026-04-26 10:51 | 51.31405 | 4.05390 | 19229 ft | 382 kts | 356° |
| 2026-04-26 10:51 | 51.34071 | 4.05339 | 19871 ft | 384 kts | 358° |
| 2026-04-26 10:52 | 51.36753 | 4.05292 | 20523 ft | 387 kts | 358° |
| 2026-04-26 10:52 | 51.39415 | 4.05240 | 21154 ft | 388 kts | 357° |
| 2026-04-26 10:52 | 51.42124 | 4.05180 | 21774 ft | 391 kts | 357° |
| 2026-04-26 10:52 | 51.44852 | 4.05123 | 22366 ft | 393 kts | 358° |
| 2026-04-26 10:53 | 51.47589 | 4.05519 | 22932 ft | 398 kts | 8° |
| 2026-04-26 10:53 | 51.50277 | 4.06697 | 23494 ft | 403 kts | 18° |
| 2026-04-26 10:53 | 51.52861 | 4.08526 | 24019 ft | 408 kts | 22° |
| 2026-04-26 10:54 | 51.58040 | 4.12372 | 24906 ft | 412 kts | 22° |
| 2026-04-26 10:54 | 51.60657 | 4.14311 | 25358 ft | 415 kts | 21° |
| 2026-04-26 10:54 | 51.63283 | 4.16259 | 25796 ft | 417 kts | 21° |
| 2026-04-26 10:54 | 51.65927 | 4.18221 | 26233 ft | 419 kts | 21° |
| 2026-04-26 10:55 | 51.68581 | 4.20194 | 26671 ft | 422 kts | 21° |
| 2026-04-26 10:55 | 51.71252 | 4.22186 | 27111 ft | 424 kts | 21° |
| 2026-04-26 10:55 | 51.73932 | 4.24189 | 27553 ft | 426 kts | 21° |
| 2026-04-26 10:55 | 51.76639 | 4.26213 | 27942 ft | 429 kts | 21° |
| 2026-04-26 10:56 | 51.79356 | 4.28245 | 28334 ft | 432 kts | 21° |
| 2026-04-26 10:56 | 51.82086 | 4.30297 | 28744 ft | 435 kts | 21° |
| 2026-04-26 10:56 | 51.84836 | 4.32372 | 29145 ft | 437 kts | 21° |
| 2026-04-26 10:56 | 51.87600 | 4.34458 | 29533 ft | 439 kts | 21° |
| 2026-04-26 10:57 | 51.90377 | 4.36556 | 29914 ft | 442 kts | 21° |
| 2026-04-26 10:57 | 51.93132 | 4.38643 | 30286 ft | 444 kts | 21° |
| 2026-04-26 10:57 | 51.95939 | 4.40768 | 30616 ft | 446 kts | 21° |
| 2026-04-26 10:57 | 51.98753 | 4.42897 | 30916 ft | 449 kts | 21° |
| 2026-04-26 10:58 | 52.01586 | 4.45043 | 31205 ft | 451 kts | 21° |
| 2026-04-26 10:58 | 52.04442 | 4.47211 | 31603 ft | 450 kts | 21° |
| 2026-04-26 10:58 | 52.07280 | 4.49370 | 32019 ft | 450 kts | 21° |
| 2026-04-26 10:58 | 52.10110 | 4.51528 | 32419 ft | 450 kts | 21° |
| 2026-04-26 10:59 | 52.12945 | 4.53693 | 32826 ft | 449 kts | 22° |
| 2026-04-26 10:59 | 52.15772 | 4.55855 | 33241 ft | 449 kts | 22° |
| 2026-04-26 10:59 | 52.18602 | 4.58019 | 33662 ft | 449 kts | 22° |
| 2026-04-26 10:59 | 52.21427 | 4.60179 | 34088 ft | 449 kts | 22° |
| 2026-04-26 11:00 | 52.24257 | 4.62349 | 34470 ft | 449 kts | 22° |
| 2026-04-26 11:00 | 52.27086 | 4.64522 | 34832 ft | 449 kts | 22° |
| 2026-04-26 11:00 | 52.29910 | 4.66691 | 35200 ft | 449 kts | 22° |
| 2026-04-26 11:00 | 52.32740 | 4.68865 | 35572 ft | 449 kts | 22° |
| 2026-04-26 11:01 | 52.35566 | 4.71045 | 35931 ft | 449 kts | 22° |
| 2026-04-26 11:01 | 52.38388 | 4.73222 | 36278 ft | 448 kts | 22° |
| 2026-04-26 11:01 | 52.41209 | 4.75404 | 36601 ft | 448 kts | 22° |
| 2026-04-26 11:01 | 52.44024 | 4.77591 | 36959 ft | 449 kts | 22° |
| 2026-04-26 11:02 | 52.46850 | 4.79790 | 37248 ft | 449 kts | 22° |
| 2026-04-26 11:02 | 52.49674 | 4.81986 | 37549 ft | 450 kts | 22° |
| 2026-04-26 11:02 | 52.52456 | 4.84330 | 37851 ft | 452 kts | 28° |
| 2026-04-26 11:02 | 52.55026 | 4.87348 | 38147 ft | 456 kts | 38° |
| 2026-04-26 11:03 | 52.57314 | 4.90994 | 38338 ft | 459 kts | 43° |
| 2026-04-26 11:03 | 52.59485 | 4.94736 | 38363 ft | 457 kts | 43° |
| 2026-04-26 11:03 | 52.63869 | 5.02297 | 38366 ft | 456 kts | 44° |
| 2026-04-26 11:04 | 52.68238 | 5.09859 | 38363 ft | 455 kts | 44° |
| 2026-04-26 11:04 | 52.72610 | 5.17440 | 38371 ft | 456 kts | 44° |
| 2026-04-26 11:05 | 52.76974 | 5.25028 | 38381 ft | 456 kts | 44° |
| 2026-04-26 11:05 | 52.81332 | 5.32636 | 38383 ft | 456 kts | 44° |
| 2026-04-26 11:06 | 52.84983 | 5.39037 | 38384 ft | 456 kts | 44° |
| 2026-04-26 11:06 | 52.90036 | 5.47921 | 38388 ft | 456 kts | 44° |
| 2026-04-26 11:07 | 52.94380 | 5.55565 | 38376 ft | 456 kts | 44° |
| 2026-04-26 11:07 | 52.98722 | 5.63240 | 38386 ft | 456 kts | 44° |
| 2026-04-26 11:08 | 53.03064 | 5.70944 | 38386 ft | 456 kts | 44° |
| 2026-04-26 11:08 | 53.07391 | 5.78640 | 38384 ft | 456 kts | 44° |
| 2026-04-26 11:09 | 53.11717 | 5.86360 | 38402 ft | 456 kts | 44° |
| 2026-04-26 11:09 | 53.16040 | 5.94093 | 38385 ft | 456 kts | 44° |
| 2026-04-26 11:10 | 53.20335 | 6.01811 | 38383 ft | 457 kts | 44° |
| 2026-04-26 11:10 | 53.24649 | 6.09588 | 38380 ft | 457 kts | 44° |
| 2026-04-26 11:11 | 53.28967 | 6.17407 | 38375 ft | 457 kts | 44° |
| 2026-04-26 11:11 | 53.33279 | 6.25219 | 38373 ft | 457 kts | 44° |
| 2026-04-26 11:12 | 53.37589 | 6.33053 | 38372 ft | 457 kts | 45° |
| 2026-04-26 11:12 | 53.41893 | 6.40906 | 38370 ft | 457 kts | 45° |
| 2026-04-26 11:13 | 53.46172 | 6.48736 | 38374 ft | 458 kts | 45° |
| 2026-04-26 11:13 | 53.50470 | 6.56635 | 38370 ft | 458 kts | 45° |
| 2026-04-26 11:14 | 53.54034 | 6.63206 | 38366 ft | 458 kts | 45° |
| 2026-04-26 11:14 | 53.58321 | 6.71122 | 38376 ft | 458 kts | 45° |
| 2026-04-26 11:15 | 53.62605 | 6.79073 | 38373 ft | 458 kts | 45° |
| 2026-04-26 11:15 | 53.66885 | 6.87038 | 38375 ft | 458 kts | 45° |
| 2026-04-26 11:16 | 53.71167 | 6.95026 | 38375 ft | 459 kts | 45° |
| 2026-04-26 11:16 | 53.75445 | 7.03036 | 38374 ft | 459 kts | 45° |
| 2026-04-26 11:17 | 53.79688 | 7.11008 | 38390 ft | 459 kts | 45° |
| 2026-04-26 11:17 | 53.83960 | 7.19055 | 38386 ft | 459 kts | 45° |
| 2026-04-26 11:18 | 53.88223 | 7.27114 | 38386 ft | 459 kts | 45° |
| 2026-04-26 11:18 | 53.92481 | 7.35191 | 38386 ft | 459 kts | 45° |
| 2026-04-26 11:19 | 53.96735 | 7.43273 | 38384 ft | 459 kts | 45° |
| 2026-04-26 11:19 | 54.00978 | 7.51374 | 38382 ft | 459 kts | 46° |
| 2026-04-26 11:20 | 54.04501 | 7.58137 | 38393 ft | 459 kts | 45° |
| 2026-04-26 11:20 | 54.09452 | 7.67653 | 38383 ft | 459 kts | 45° |
| 2026-04-26 11:21 | 54.13685 | 7.75814 | 38383 ft | 459 kts | 46° |
| 2026-04-26 11:21 | 54.17914 | 7.83990 | 38381 ft | 460 kts | 46° |
| 2026-04-26 11:22 | 54.22110 | 7.92133 | 38376 ft | 460 kts | 46° |
| 2026-04-26 11:22 | 54.26351 | 8.00405 | 38398 ft | 459 kts | 46° |
| 2026-04-26 11:23 | 54.30532 | 8.08587 | 38388 ft | 461 kts | 46° |
| 2026-04-26 11:23 | 54.34768 | 8.16900 | 38359 ft | 461 kts | 46° |
| 2026-04-26 11:24 | 54.38983 | 8.25179 | 38366 ft | 460 kts | 46° |
| 2026-04-26 11:24 | 54.43179 | 8.33467 | 38355 ft | 460 kts | 46° |
| 2026-04-26 11:25 | 54.47376 | 8.41784 | 38354 ft | 460 kts | 46° |
| 2026-04-26 11:25 | 54.51561 | 8.50105 | 38355 ft | 460 kts | 46° |
| 2026-04-26 11:26 | 54.55720 | 8.58396 | 38360 ft | 461 kts | 46° |
| 2026-04-26 11:26 | 54.59903 | 8.66773 | 38357 ft | 461 kts | 46° |
| 2026-04-26 11:27 | 54.64074 | 8.75161 | 38355 ft | 460 kts | 46° |
| 2026-04-26 11:27 | 54.68244 | 8.83572 | 38346 ft | 460 kts | 46° |
| 2026-04-26 11:28 | 54.72410 | 8.91998 | 38360 ft | 461 kts | 46° |
| 2026-04-26 11:28 | 54.76570 | 9.00429 | 38349 ft | 460 kts | 46° |
| 2026-04-26 11:29 | 54.80692 | 9.08827 | 38339 ft | 460 kts | 46° |
| 2026-04-26 11:29 | 54.84833 | 9.17295 | 38324 ft | 460 kts | 46° |
| 2026-04-26 11:30 | 54.88323 | 9.24368 | 38245 ft | 461 kts | 45° |
| 2026-04-26 11:30 | 54.91134 | 9.29902 | 37906 ft | 460 kts | 44° |
| 2026-04-26 11:30 | 54.93262 | 9.34053 | 37635 ft | 460 kts | 44° |
| 2026-04-26 11:31 | 54.95396 | 9.38214 | 37386 ft | 461 kts | 44° |
| 2026-04-26 11:31 | 54.97521 | 9.42378 | 37303 ft | 460 kts | 44° |
| 2026-04-26 11:31 | 55.01764 | 9.50771 | 37330 ft | 462 kts | 44° |
| 2026-04-26 11:32 | 55.05996 | 9.59231 | 37329 ft | 462 kts | 45° |
| 2026-04-26 11:32 | 55.10005 | 9.68031 | 36661 ft | 472 kts | 55° |
| 2026-04-26 11:33 | 55.11497 | 9.73242 | 35777 ft | 484 kts | 65° |
| 2026-04-26 11:33 | 55.12553 | 9.78865 | 34907 ft | 491 kts | 70° |
| 2026-04-26 11:33 | 55.13543 | 9.84536 | 34021 ft | 496 kts | 70° |
| 2026-04-26 11:33 | 55.14567 | 9.90323 | 32955 ft | 501 kts | 69° |
| 2026-04-26 11:34 | 55.15605 | 9.96133 | 31944 ft | 503 kts | 69° |
| 2026-04-26 11:34 | 55.16655 | 10.01986 | 31059 ft | 502 kts | 69° |
| 2026-04-26 11:34 | 55.17686 | 10.07775 | 29720 ft | 499 kts | 69° |
| 2026-04-26 11:34 | 55.18701 | 10.13515 | 28983 ft | 483 kts | 69° |
| 2026-04-26 11:35 | 55.19661 | 10.19014 | 28374 ft | 466 kts | 69° |
| 2026-04-26 11:35 | 55.20591 | 10.24355 | 27701 ft | 452 kts | 69° |
| 2026-04-26 11:35 | 55.21495 | 10.29554 | 27047 ft | 440 kts | 69° |
| 2026-04-26 11:35 | 55.22080 | 10.32921 | 26627 ft | 434 kts | 69° |
| 2026-04-26 11:36 | 55.23256 | 10.39684 | 25764 ft | 433 kts | 69° |
| 2026-04-26 11:36 | 55.24134 | 10.44732 | 25126 ft | 432 kts | 69° |
| 2026-04-26 11:36 | 55.25005 | 10.49758 | 24497 ft | 432 kts | 69° |
| 2026-04-26 11:36 | 55.25873 | 10.54793 | 23855 ft | 431 kts | 69° |
| 2026-04-26 11:37 | 55.26736 | 10.59819 | 23186 ft | 428 kts | 69° |
| 2026-04-26 11:37 | 55.27587 | 10.64789 | 22611 ft | 424 kts | 69° |
| 2026-04-26 11:37 | 55.28430 | 10.69714 | 22043 ft | 420 kts | 69° |
| 2026-04-26 11:37 | 55.29257 | 10.74535 | 21502 ft | 417 kts | 69° |
| 2026-04-26 11:38 | 55.30091 | 10.79384 | 20956 ft | 413 kts | 69° |
| 2026-04-26 11:38 | 55.30916 | 10.84195 | 20440 ft | 410 kts | 68° |
| 2026-04-26 11:38 | 55.31730 | 10.88967 | 19891 ft | 407 kts | 68° |
| 2026-04-26 11:38 | 55.32534 | 10.93706 | 19362 ft | 403 kts | 68° |
| 2026-04-26 11:39 | 55.33330 | 10.98414 | 18811 ft | 400 kts | 68° |
| 2026-04-26 11:39 | 55.34113 | 11.03087 | 18209 ft | 397 kts | 69° |
| 2026-04-26 11:39 | 55.34885 | 11.07723 | 17638 ft | 392 kts | 69° |
| 2026-04-26 11:39 | 55.35641 | 11.12295 | 17081 ft | 388 kts | 68° |
| 2026-04-26 11:40 | 55.36389 | 11.16828 | 16482 ft | 384 kts | 68° |
| 2026-04-26 11:40 | 55.37131 | 11.21316 | 15905 ft | 380 kts | 68° |
| 2026-04-26 11:40 | 55.37865 | 11.25769 | 15316 ft | 377 kts | 68° |
| 2026-04-26 11:40 | 55.38589 | 11.30189 | 14732 ft | 374 kts | 68° |
| 2026-04-26 11:41 | 55.39303 | 11.34560 | 14147 ft | 371 kts | 68° |
| 2026-04-26 11:42 | 55.43878 | 11.62455 | 12334 ft | 303 kts | 60° |
| 2026-04-26 11:43 | 55.44895 | 11.65642 | 12335 ft | 296 kts | 49° |
| 2026-04-26 11:43 | 55.46074 | 11.68686 | 12340 ft | 312 kts | 52° |
| 2026-04-26 11:43 | 55.47013 | 11.72362 | 12333 ft | 348 kts | 70° |
| 2026-04-26 11:43 | 55.47503 | 11.76579 | 11998 ft | 350 kts | 75° |
| 2026-04-26 11:44 | 55.47916 | 11.80759 | 11748 ft | 335 kts | 75° |
| 2026-04-26 11:44 | 55.48299 | 11.84709 | 11308 ft | 322 kts | 73° |
| 2026-04-26 11:44 | 55.49071 | 11.88220 | 10976 ft | 296 kts | 53° |
| 2026-04-26 11:44 | 55.50153 | 11.91229 | 10495 ft | 287 kts | 50° |
| 2026-04-26 11:45 | 55.51254 | 11.94147 | 9921 ft | 284 kts | 50° |
| 2026-04-26 11:45 | 55.52355 | 11.97018 | 9350 ft | 280 kts | 50° |
| 2026-04-26 11:45 | 55.53435 | 11.99789 | 8993 ft | 278 kts | 50° |
| 2026-04-26 11:45 | 55.54543 | 12.02596 | 8729 ft | 279 kts | 50° |
| 2026-04-26 11:46 | 55.55657 | 12.05398 | 8469 ft | 278 kts | 50° |
| 2026-04-26 11:46 | 55.56771 | 12.08182 | 8209 ft | 276 kts | 50° |
| 2026-04-26 11:46 | 55.57888 | 12.10942 | 7950 ft | 275 kts | 50° |
| 2026-04-26 11:46 | 55.59005 | 12.13679 | 7694 ft | 274 kts | 50° |
| 2026-04-26 11:47 | 55.59998 | 12.16559 | 7433 ft | 277 kts | 66° |
| 2026-04-26 11:47 | 55.60240 | 12.19945 | 7077 ft | 283 kts | 95° |
| 2026-04-26 11:47 | 55.59584 | 12.23212 | 6618 ft | 285 kts | 123° |
| 2026-04-26 11:47 | 55.58173 | 12.25625 | 6150 ft | 283 kts | 147° |
| 2026-04-26 11:48 | 55.56517 | 12.27445 | 5702 ft | 280 kts | 150° |
| 2026-04-26 11:48 | 55.54858 | 12.29198 | 5269 ft | 280 kts | 150° |
| 2026-04-26 11:48 | 55.53198 | 12.30966 | 4732 ft | 277 kts | 150° |
| 2026-04-26 11:48 | 55.51552 | 12.32729 | 4066 ft | 277 kts | 150° |
| 2026-04-26 11:49 | 55.49871 | 12.34503 | 3327 ft | 280 kts | 150° |
| 2026-04-26 11:49 | 55.48216 | 12.36229 | 2869 ft | 272 kts | 150° |
| 2026-04-26 11:49 | 55.46715 | 12.38158 | 2442 ft | 264 kts | 131° |
| 2026-04-26 11:49 | 55.45986 | 12.40987 | 2047 ft | 250 kts | 90° |
| 2026-04-26 11:50 | 55.46396 | 12.43679 | 2000 ft | 224 kts | 48° |
| 2026-04-26 11:50 | 55.47648 | 12.45105 | 2023 ft | 218 kts | 9° |
| 2026-04-26 11:50 | 55.49087 | 12.45632 | 1974 ft | 205 kts | 16° |
| 2026-04-26 11:50 | 55.50306 | 12.46825 | 1998 ft | 193 kts | 31° |
| 2026-04-26 11:51 | 55.51316 | 12.48237 | 2026 ft | 174 kts | 35° |
| 2026-04-26 11:51 | 55.52191 | 12.49554 | 1870 ft | 159 kts | 35° |
| 2026-04-26 11:51 | 55.52998 | 12.50784 | 1684 ft | 148 kts | 35° |
| 2026-04-26 11:51 | 55.53755 | 12.51943 | 1493 ft | 140 kts | 35° |
| 2026-04-26 11:52 | 55.54483 | 12.53059 | 1305 ft | 138 kts | 35° |
| 2026-04-26 11:52 | 55.54963 | 12.53796 | 1194 ft | 138 kts | 35° |
| 2026-04-26 11:52 | 55.55909 | 12.55252 | 945 ft | 135 kts | 35° |
| 2026-04-26 11:52 | 55.56605 | 12.56324 | 758 ft | 132 kts | 36° |
| 2026-04-26 11:53 | 55.57293 | 12.57387 | 581 ft | 130 kts | 36° |
| 2026-04-26 11:53 | 55.57966 | 12.58433 | 391 ft | 128 kts | 38° |
| 2026-04-26 11:53 | 55.58631 | 12.59449 | 225 ft | 125 kts | 38° |
| 2026-04-26 11:54 | 55.59891 | 12.61384 | 23 ft | 98 kts | 41° |
| 2026-04-26 11:54 | 55.60274 | 12.61980 | 24 ft | 49 kts | 41° |
| 2026-04-26 11:54 | 55.60483 | 12.62271 | 25 ft | 31 kts | 24° |
| 2026-04-26 11:54 | 55.60637 | 12.62348 | 29 ft | 18 kts | 12° |
| 2026-04-26 11:55 | 55.60782 | 12.62408 | 24 ft | 25 kts | 24° |
| 2026-04-26 11:55 | 55.60937 | 12.62622 | 24 ft | 31 kts | 40° |
| 2026-04-26 11:55 | 55.61119 | 12.62905 | 24 ft | 39 kts | 41° |
| 2026-04-26 11:55 | 55.61296 | 12.63177 | 24 ft | 28 kts | 41° |
| 2026-04-26 11:56 | 55.61457 | 12.63428 | 24 ft | 32 kts | 41° |
| 2026-04-26 11:56 | 55.61632 | 12.63699 | 24 ft | 30 kts | 40° |
| 2026-04-26 11:56 | 55.61772 | 12.63914 | 24 ft | 26 kts | 40° |
| 2026-04-26 11:56 | 55.61919 | 12.64110 | 26 ft | 29 kts | 24° |
| 2026-04-26 11:57 | 55.62062 | 12.64228 | 24 ft | 22 kts | 24° |
| 2026-04-26 11:57 | 55.62203 | 12.64347 | 22 ft | 23 kts | 24° |
| 2026-04-26 11:57 | 55.62334 | 12.64420 | 23 ft | 15 kts | 14° |
| 2026-04-26 11:57 | 55.62379 | 12.64444 | 24 ft | 1 kts | 17° |
| 2026-04-26 11:58 | 55.62408 | 12.64458 | 24 ft | 11 kts | 14° |
| 2026-04-26 11:58 | 55.62500 | 12.64464 | 25 ft | 15 kts | 326° |
| 2026-04-26 11:58 | 55.62564 | 12.64300 | 24 ft | 13 kts | 302° |
| 2026-04-26 11:58 | 55.62624 | 12.64276 | 24 ft | 10 kts | 27° |
| 2026-04-26 11:59 | 55.62695 | 12.64332 | 24 ft | 9 kts | 21° |
| 2026-04-26 11:59 | 55.62720 | 12.64393 | 24 ft | 7 kts | 86° |
| 2026-04-26 11:59 | 55.62714 | 12.64451 | 24 ft | 3 kts | 102° |
| 2026-04-26 11:59 | 55.62712 | 12.64468 | 24 ft | 0 kts | 102° |